Time;durP1;ratioP1;P1;durP2;ratioP2;P2;SDS_P1;SDS_P2;PMS_P1;PMS_P2;Temp;Humidity;BMP_temperature;BMP_pressure;BME280_temperature;BME280_humidity;BME280_pressure;Samples;Min_cycle;Max_cycle;Signal;HPM_P1;HPM_P2
2023/01/23 00:00:33;;;;;;;18.95;11.68;;;2.80;99.90;;;;;;5052006;28;20210;-46
2023/01/23 00:02:58;;;;;;;24.00;13.10;;;2.80;99.90;;;;;;5051758;28;20190;-47
2023/01/23 00:05:24;;;;;;;20.95;12.38;;;2.90;99.90;;;;;;5051677;28;20214;-47
2023/01/23 00:07:50;;;;;;;22.23;12.70;;;2.90;99.90;;;;;;5050488;28;20170;-46
2023/01/23 00:10:15;;;;;;;23.42;13.70;;;2.80;99.90;;;;;;5051753;28;20225;-46
2023/01/23 00:12:42;;;;;;;22.15;13.68;;;2.90;99.90;;;;;;5052024;28;20215;-46
2023/01/23 00:15:10;;;;;;;20.80;12.18;;;2.90;99.90;;;;;;5052153;28;20192;-46
2023/01/23 00:17:35;;;;;;;20.27;13.10;;;2.80;99.90;;;;;;5062395;28;20268;-46
2023/01/23 00:20:01;;;;;;;20.02;12.98;;;2.90;99.90;;;;;;5056396;28;20285;-46
2023/01/23 00:22:26;;;;;;;21.20;12.73;;;2.90;99.90;;;;;;5051909;28;20167;-46
2023/01/23 00:24:52;;;;;;;20.45;12.38;;;2.90;99.90;;;;;;5051635;28;20171;-46
2023/01/23 00:27:17;;;;;;;22.42;12.73;;;3.00;99.90;;;;;;5056449;28;20170;-46
2023/01/23 00:29:44;;;;;;;22.30;12.55;;;2.90;99.90;;;;;;5058286;28;20186;-46
2023/01/23 00:32:10;;;;;;;17.80;11.85;;;3.00;99.90;;;;;;5058799;28;20190;-46
2023/01/23 00:34:37;;;;;;;18.77;11.80;;;3.00;99.90;;;;;;5058237;28;20166;-46
2023/01/23 00:37:02;;;;;;;21.50;12.88;;;2.90;99.90;;;;;;5058146;28;20170;-46
2023/01/23 00:39:28;;;;;;;20.73;11.40;;;3.00;99.90;;;;;;5058039;28;20538;-46
2023/01/23 00:41:53;;;;;;;20.58;13.07;;;2.90;99.90;;;;;;5058068;28;20177;-46
2023/01/23 00:44:19;;;;;;;20.35;12.63;;;2.90;99.90;;;;;;5058103;28;20253;-46
2023/01/23 00:46:45;;;;;;;21.25;12.35;;;2.90;99.90;;;;;;5058745;28;20186;-46
2023/01/23 00:49:11;;;;;;;20.92;11.65;;;2.90;99.90;;;;;;5066333;28;20736;-46
2023/01/23 00:51:36;;;;;;;18.23;11.20;;;2.90;99.90;;;;;;5077802;28;20166;-46
2023/01/23 00:54:02;;;;;;;18.52;11.73;;;2.90;99.90;;;;;;5078032;28;20578;-46
2023/01/23 00:56:28;;;;;;;21.20;11.73;;;2.90;99.90;;;;;;5078067;28;20154;-46
2023/01/23 00:58:54;;;;;;;20.75;12.52;;;2.90;99.90;;;;;;5078255;28;20252;-46
2023/01/23 01:01:21;;;;;;;21.67;12.35;;;3.00;99.90;;;;;;5077905;28;20638;-46
2023/01/23 01:03:47;;;;;;;21.13;11.90;;;3.00;99.90;;;;;;5077527;28;20305;-46
2023/01/23 01:06:13;;;;;;;19.08;11.95;;;2.90;99.90;;;;;;5077965;28;20253;-46
2023/01/23 01:08:38;;;;;;;20.38;11.20;;;2.90;99.90;;;;;;5078292;28;20178;-46
2023/01/23 01:11:04;;;;;;;16.17;10.70;;;2.90;99.90;;;;;;5077948;28;20207;-47
2023/01/23 01:13:30;;;;;;;17.40;11.35;;;2.80;99.90;;;;;;5077963;28;20162;-47
2023/01/23 01:16:00;;;;;;;18.05;11.05;;;2.90;99.90;;;;;;5077749;28;20277;-46
2023/01/23 01:18:27;;;;;;;19.08;10.70;;;2.90;99.90;;;;;;5058095;28;20265;-47
2023/01/23 01:20:53;;;;;;;19.38;11.93;;;2.80;99.90;;;;;;5057713;28;20206;-47
2023/01/23 01:23:19;;;;;;;18.27;11.68;;;2.90;99.90;;;;;;5057861;28;20163;-46
2023/01/23 01:25:45;;;;;;;14.75;10.25;;;2.90;99.90;;;;;;5058021;28;20253;-47
2023/01/23 01:28:11;;;;;;;18.42;10.95;;;2.90;99.90;;;;;;5058022;28;20623;-47
2023/01/23 01:30:37;;;;;;;16.83;10.82;;;3.00;99.90;;;;;;5058006;28;20174;-46
2023/01/23 01:33:03;;;;;;;16.98;11.02;;;2.90;99.90;;;;;;5057492;28;20661;-47
2023/01/23 01:35:28;;;;;;;15.95;10.35;;;2.90;99.90;;;;;;5057663;28;20219;-47
2023/01/23 01:37:54;;;;;;;18.48;10.77;;;2.90;99.90;;;;;;5054457;28;20178;-46
2023/01/23 01:40:23;;;;;;;23.33;12.35;;;2.80;99.90;;;;;;5054504;28;20214;-46
2023/01/23 01:42:53;;;;;;;16.83;10.05;;;2.70;99.90;;;;;;5057712;28;20587;-46
2023/01/23 01:45:56;;;;;;;17.52;10.43;;;2.80;99.90;;;;;;5054274;28;20203;-47
2023/01/23 01:48:28;;;;;;;15.98;10.52;;;2.70;99.90;;;;;;5054633;28;20625;-46
2023/01/23 01:50:54;;;;;;;16.83;11.25;;;2.80;99.90;;;;;;5054276;28;20249;-46
2023/01/23 01:53:24;;;;;;;18.30;10.38;;;2.60;99.90;;;;;;5054211;28;20170;-46
2023/01/23 01:55:50;;;;;;;18.27;11.93;;;2.70;99.90;;;;;;5054179;28;20178;-46
2023/01/23 01:58:16;;;;;;;16.30;10.73;;;2.70;99.90;;;;;;5054141;28;20194;-47
2023/01/23 02:00:42;;;;;;;22.90;12.50;;;2.70;99.90;;;;;;5054376;28;20299;-46
2023/01/23 02:03:08;;;;;;;17.20;10.63;;;2.70;99.90;;;;;;5054152;28;20182;-46
2023/01/23 02:05:38;;;;;;;16.50;11.18;;;2.80;99.90;;;;;;5053975;28;20185;-46
2023/01/23 02:08:15;;;;;;;16.85;11.20;;;2.70;99.90;;;;;;5054006;28;20627;-47
2023/01/23 02:10:41;;;;;;;18.20;11.95;;;2.70;99.90;;;;;;5054416;28;20655;-46
2023/01/23 02:13:31;;;;;;;16.73;10.40;;;2.80;99.90;;;;;;5053922;28;20254;-46
2023/01/23 02:15:58;;;;;;;17.63;10.90;;;2.80;99.90;;;;;;5054165;28;20289;-46
2023/01/23 02:18:25;;;;;;;20.85;12.10;;;2.70;99.90;;;;;;5053817;28;20630;-46
2023/01/23 02:20:52;;;;;;;14.43;9.38;;;2.80;99.90;;;;;;5053607;28;20210;-46
2023/01/23 02:23:35;;;;;;;16.77;11.32;;;2.70;99.90;;;;;;5053773;28;20170;-46
2023/01/23 02:26:12;;;;;;;18.60;11.25;;;2.70;99.90;;;;;;5053647;28;20162;-46
2023/01/23 02:28:39;;;;;;;15.73;10.35;;;2.70;99.90;;;;;;5053921;28;20174;-46
2023/01/23 02:31:06;;;;;;;19.17;11.00;;;2.70;99.90;;;;;;5053543;28;20174;-46
2023/01/23 02:33:31;;;;;;;20.67;11.52;;;2.80;99.90;;;;;;5053517;28;20170;-46
2023/01/23 02:35:58;;;;;;;20.05;12.75;;;2.80;99.90;;;;;;5053463;28;20175;-46
2023/01/23 02:38:30;;;;;;;20.77;11.88;;;2.70;99.90;;;;;;5053347;28;20613;-46
2023/01/23 02:40:59;;;;;;;18.58;12.00;;;2.60;99.90;;;;;;5058096;28;20277;-46
2023/01/23 02:43:33;;;;;;;20.92;13.18;;;2.80;99.90;;;;;;5073313;28;20224;-46
2023/01/23 02:46:02;;;;;;;20.15;12.10;;;2.80;99.90;;;;;;5073461;28;20209;-46
2023/01/23 02:48:27;;;;;;;22.58;12.05;;;2.70;99.90;;;;;;5072788;28;20158;-46
2023/01/23 02:50:53;;;;;;;20.38;12.82;;;2.80;99.90;;;;;;5073093;28;20177;-46
2023/01/23 02:53:18;;;;;;;20.83;12.70;;;2.70;99.90;;;;;;5073150;28;20252;-46
2023/01/23 02:55:44;;;;;;;19.38;11.63;;;2.70;99.90;;;;;;5073238;28;20198;-46
2023/01/23 03:00:54;;;;;;;22.75;11.75;;;2.70;99.90;;;;;;5071080;28;20305;-46
2023/01/23 03:03:19;;;;;;;20.05;12.80;;;2.80;99.90;;;;;;5072285;28;20281;-46
2023/01/23 03:05:46;;;;;;;16.55;11.02;;;2.70;99.90;;;;;;5072814;28;20230;-46
2023/01/23 03:08:11;;;;;;;21.20;12.52;;;2.60;99.90;;;;;;5073132;28;20701;-46
2023/01/23 03:10:37;;;;;;;24.85;13.15;;;2.60;99.90;;;;;;5073329;28;20205;-46
2023/01/23 03:13:06;;;;;;;21.40;11.45;;;2.80;99.90;;;;;;5072614;28;20351;-47
2023/01/23 03:15:33;;;;;;;18.58;11.88;;;2.70;99.90;;;;;;5072749;28;20174;-46
2023/01/23 03:17:59;;;;;;;22.85;12.90;;;2.70;99.90;;;;;;5072818;28;20196;-44
2023/01/23 03:20:26;;;;;;;20.83;12.05;;;2.60;99.90;;;;;;5072423;28;20657;-44
2023/01/23 03:22:56;;;;;;;18.60;11.88;;;2.70;99.90;;;;;;5060356;28;20175;-43
2023/01/23 03:25:22;;;;;;;21.42;12.52;;;2.60;99.90;;;;;;5052397;28;20189;-43
2023/01/23 03:27:47;;;;;;;25.25;11.85;;;2.60;99.90;;;;;;5052383;28;20167;-44
2023/01/23 03:30:15;;;;;;;20.73;12.63;;;2.70;99.90;;;;;;5052327;28;20163;-44
2023/01/23 03:32:44;;;;;;;19.33;11.85;;;2.50;99.90;;;;;;5052857;28;20167;-44
2023/01/23 03:35:19;;;;;;;21.88;12.85;;;2.60;99.90;;;;;;5052826;28;20181;-44
2023/01/23 03:37:48;;;;;;;20.50;12.07;;;2.50;99.90;;;;;;5052404;28;20169;-44
2023/01/23 03:43:03;;;;;;;24.17;13.93;;;2.50;99.90;;;;;;5052400;28;20649;-44
2023/01/23 03:45:29;;;;;;;23.70;12.48;;;2.50;99.90;;;;;;5052092;28;20166;-44
2023/01/23 03:47:55;;;;;;;21.42;12.60;;;2.40;99.90;;;;;;5051979;28;20163;-44
2023/01/23 03:50:20;;;;;;;22.55;13.60;;;2.40;99.90;;;;;;5052050;28;20174;-43
2023/01/23 03:52:46;;;;;;;23.40;12.65;;;2.40;99.90;;;;;;5054518;28;20171;-44
2023/01/23 03:55:11;;;;;;;20.58;12.60;;;2.40;99.90;;;;;;5052023;28;20514;-44
2023/01/23 03:57:37;;;;;;;21.15;12.57;;;2.40;99.90;;;;;;5052021;28;20170;-44
2023/01/23 04:00:04;;;;;;;21.10;12.27;;;2.30;99.90;;;;;;5051372;28;20316;-44
2023/01/23 04:02:30;;;;;;;18.42;11.45;;;2.30;99.90;;;;;;5051562;28;20189;-43
2023/01/23 04:04:56;;;;;;;17.48;10.70;;;2.20;99.90;;;;;;5051652;28;20221;-44
2023/01/23 04:07:21;;;;;;;22.70;10.65;;;2.20;99.90;;;;;;5051883;28;20166;-44
2023/01/23 04:09:47;;;;;;;22.50;12.88;;;2.30;99.90;;;;;;5051737;28;20175;-44
2023/01/23 04:12:13;;;;;;;20.23;12.15;;;2.30;99.90;;;;;;5051628;28;20288;-44
2023/01/23 04:14:38;;;;;;;18.10;10.90;;;2.30;99.90;;;;;;5052106;28;20178;-44
2023/01/23 04:17:06;;;;;;;19.20;12.55;;;2.30;99.90;;;;;;5051748;28;20170;-44
2023/01/23 04:19:32;;;;;;;21.05;12.30;;;2.30;99.90;;;;;;5051968;28;21154;-43
2023/01/23 04:21:58;;;;;;;22.52;13.70;;;2.30;99.90;;;;;;5055438;28;20173;-43
2023/01/23 04:24:23;;;;;;;24.33;13.02;;;2.50;99.90;;;;;;5071627;28;20199;-44
2023/01/23 04:26:49;;;;;;;21.15;12.85;;;2.50;99.90;;;;;;5071587;28;20174;-44
2023/01/23 04:29:15;;;;;;;19.27;11.43;;;2.50;99.90;;;;;;5071484;28;20162;-43
2023/01/23 04:31:42;;;;;;;23.35;13.02;;;2.40;99.90;;;;;;5072082;28;20353;-44
2023/01/23 04:34:07;;;;;;;21.27;11.95;;;3.80;99.90;;;;;;5072171;28;20166;-44
2023/01/23 04:36:33;;;;;;;11.90;7.80;;;2.30;99.90;;;;;;5071537;28;20391;-44
2023/01/23 04:38:59;;;;;;;20.40;11.43;;;2.30;99.90;;;;;;5071465;28;20166;-44
2023/01/23 04:41:27;;;;;;;20.63;12.25;;;2.30;99.90;;;;;;5071331;28;20205;-44
2023/01/23 04:43:53;;;;;;;21.80;12.25;;;2.40;99.90;;;;;;5071385;28;20173;-44
2023/01/23 04:46:19;;;;;;;20.05;12.05;;;2.40;99.90;;;;;;5071379;28;20556;-44
2023/01/23 04:48:45;;;;;;;20.50;12.88;;;2.40;99.90;;;;;;5071586;28;20162;-44
2023/01/23 04:51:10;;;;;;;19.88;12.73;;;2.40;99.90;;;;;;5071407;28;20177;-44
2023/01/23 04:53:37;;;;;;;18.90;12.27;;;2.40;99.90;;;;;;5053384;28;20198;-44
2023/01/23 04:56:03;;;;;;;19.83;12.45;;;2.30;99.90;;;;;;5051196;28;20658;-44
2023/01/23 04:58:29;;;;;;;22.42;12.45;;;2.30;99.90;;;;;;5051099;28;20207;-43
2023/01/23 05:01:00;;;;;;;22.50;12.77;;;2.30;99.90;;;;;;5051234;28;20210;-43
2023/01/23 05:03:26;;;;;;;23.13;11.00;;;2.40;99.90;;;;;;5051207;28;20363;-43
2023/01/23 05:05:51;;;;;;;24.35;14.15;;;2.30;99.90;;;;;;5051227;28;20170;-43
2023/01/23 05:08:17;;;;;;;18.77;11.77;;;2.20;99.90;;;;;;5051080;28;20627;-43
2023/01/23 05:10:43;;;;;;;21.92;11.65;;;2.30;99.90;;;;;;5051397;28;20170;-43
2023/01/23 05:13:09;;;;;;;19.52;11.95;;;2.30;99.90;;;;;;5054612;28;20175;-44
2023/01/23 05:15:34;;;;;;;21.08;12.25;;;2.40;99.90;;;;;;5055119;28;20216;-44
2023/01/23 05:18:00;;;;;;;19.65;12.43;;;2.40;99.90;;;;;;5054851;28;20182;-43
2023/01/23 05:20:26;;;;;;;19.50;11.77;;;2.40;99.90;;;;;;5054782;28;20206;-44
2023/01/23 05:22:51;;;;;;;19.40;12.98;;;2.40;99.90;;;;;;5067840;28;20181;-44
2023/01/23 05:25:26;;;;;;;20.27;12.63;;;2.40;99.90;;;;;;5056665;28;20695;-44
2023/01/23 05:27:51;;;;;;;20.00;10.90;;;2.30;99.90;;;;;;5054663;28;20252;-44
2023/01/23 05:30:20;;;;;;;20.17;12.57;;;2.40;99.90;;;;;;5054983;28;20194;-45
2023/01/23 05:32:46;;;;;;;20.77;12.98;;;2.40;99.90;;;;;;5054748;28;20175;-45
2023/01/23 05:35:12;;;;;;;18.90;11.45;;;2.50;99.90;;;;;;5057334;28;20169;-44
2023/01/23 05:37:38;;;;;;;18.25;11.73;;;2.30;99.90;;;;;;5074936;28;20237;-46
2023/01/23 05:40:07;;;;;;;19.00;11.43;;;2.40;99.90;;;;;;5074354;28;20280;-45
2023/01/23 05:42:32;;;;;;;23.42;13.32;;;2.40;99.90;;;;;;5059047;28;20206;-44
2023/01/23 05:44:58;;;;;;;21.33;12.70;;;2.30;99.90;;;;;;5073333;28;20300;-46
2023/01/23 05:47:23;;;;;;;21.15;12.85;;;2.40;99.90;;;;;;5074304;28;20166;-46
2023/01/23 05:49:49;;;;;;;21.10;11.77;;;2.40;99.90;;;;;;5073904;28;20261;-45
2023/01/23 05:52:14;;;;;;;18.90;11.35;;;2.20;99.90;;;;;;5073909;28;20190;-44
2023/01/23 05:54:40;;;;;;;21.70;12.23;;;2.30;99.90;;;;;;5074850;28;20246;-44
2023/01/23 05:57:05;;;;;;;18.20;12.25;;;2.10;99.90;;;;;;5074382;28;20166;-44
2023/01/23 05:59:31;;;;;;;18.45;11.73;;;2.20;99.90;;;;;;5074002;28;20646;-43
2023/01/23 06:01:56;;;;;;;17.67;11.45;;;2.20;99.90;;;;;;5073653;28;20588;-44
2023/01/23 06:04:22;;;;;;;16.88;10.30;;;2.10;99.90;;;;;;5073973;28;20218;-44
2023/01/23 06:06:47;;;;;;;19.95;12.73;;;2.10;99.90;;;;;;5074222;28;20174;-44
2023/01/23 06:09:13;;;;;;;19.02;11.93;;;2.00;99.90;;;;;;5073980;28;20169;-44
2023/01/23 06:11:39;;;;;;;19.40;11.07;;;2.10;99.90;;;;;;5064036;28;20175;-44
2023/01/23 06:14:04;;;;;;;19.63;11.80;;;2.00;99.90;;;;;;5054122;28;20676;-43
2023/01/23 06:16:30;;;;;;;18.95;12.65;;;2.00;99.90;;;;;;5053647;28;20166;-44
2023/01/23 06:18:55;;;;;;;18.48;11.52;;;2.10;99.90;;;;;;5053735;28;20198;-46
2023/01/23 06:21:21;;;;;;;24.00;13.63;;;2.00;99.90;;;;;;5053829;28;20244;-47
2023/01/23 06:23:47;;;;;;;29.80;16.92;;;2.10;99.90;;;;;;5052802;28;20615;-45
2023/01/23 06:26:12;;;;;;;24.35;14.38;;;2.00;99.90;;;;;;5057690;28;20171;-45
2023/01/23 06:28:38;;;;;;;34.47;17.40;;;2.00;99.90;;;;;;5053758;28;20635;-47
2023/01/23 06:31:06;;;;;;;36.05;17.13;;;2.00;99.90;;;;;;5053513;28;20178;-46
2023/01/23 06:33:31;;;;;;;64.70;28.88;;;2.00;99.90;;;;;;5051742;28;20228;-45
2023/01/23 06:36:03;;;;;;;48.58;23.73;;;2.10;99.90;;;;;;5053694;28;20252;-47
2023/01/23 06:38:29;;;;;;;35.17;18.00;;;2.10;99.90;;;;;;5054183;28;20174;-48
2023/01/23 06:40:55;;;;;;;27.80;15.07;;;1.90;99.90;;;;;;5062539;28;20665;-46
2023/01/23 06:43:22;;;;;;;22.38;13.77;;;2.00;99.90;;;;;;5071596;28;20207;-46
2023/01/23 06:45:47;;;;;;;20.50;12.57;;;2.00;99.90;;;;;;5071393;28;20169;-48
2023/01/23 06:48:14;;;;;;;22.30;12.93;;;2.00;99.90;;;;;;5070014;28;20691;-46
2023/01/23 06:50:40;;;;;;;20.00;11.50;;;5.20;99.90;;;;;;5071157;28;20182;-46
2023/01/23 06:53:06;;;;;;;21.85;13.10;;;2.00;99.90;;;;;;5071572;28;20193;-47
2023/01/23 06:55:32;;;;;;;23.02;13.48;;;2.00;99.90;;;;;;5070212;28;20652;-48
2023/01/23 06:57:58;;;;;;;20.02;13.07;;;2.00;99.90;;;;;;5071359;28;20161;-46
2023/01/23 07:00:24;;;;;;;21.83;12.30;;;2.00;99.90;;;;;;5071202;28;20209;-46
2023/01/23 07:02:51;;;;;;;57.08;16.13;;;2.00;99.90;;;;;;5071357;28;20212;-46
2023/01/23 07:05:16;;;;;;;20.20;12.40;;;2.00;99.90;;;;;;5071226;28;20715;-46
2023/01/23 07:07:42;;;;;;;19.13;12.35;;;1.90;99.90;;;;;;5071160;28;20166;-46
2023/01/23 07:10:08;;;;;;;22.65;13.40;;;2.10;99.90;;;;;;5071464;28;20166;-46
2023/01/23 07:12:34;;;;;;;20.77;12.85;;;2.10;99.90;;;;;;5070451;28;20253;-46
2023/01/23 07:15:00;;;;;;;20.63;12.73;;;2.00;99.90;;;;;;5070187;28;20256;-46
2023/01/23 07:17:25;;;;;;;20.55;12.68;;;2.10;99.90;;;;;;5071042;28;20223;-46
2023/01/23 07:19:51;;;;;;;20.60;12.70;;;2.10;99.90;;;;;;5060407;28;20313;-46
2023/01/23 07:22:21;;;;;;;19.08;12.13;;;2.10;99.90;;;;;;5055409;28;20174;-46
2023/01/23 07:24:46;;;;;;;19.48;12.05;;;2.10;99.90;;;;;;5070309;28;20174;-45
2023/01/23 07:27:13;;;;;;;19.08;12.45;;;2.20;99.90;;;;;;5070524;28;20215;-45
2023/01/23 07:29:39;;;;;;;20.40;11.80;;;2.20;99.90;;;;;;5070913;28;20180;-45
2023/01/23 07:32:05;;;;;;;20.60;12.55;;;2.30;99.90;;;;;;5070517;28;20162;-47
2023/01/23 07:34:31;;;;;;;22.73;13.02;;;2.20;99.90;;;;;;5070279;28;20494;-46
2023/01/23 07:36:57;;;;;;;20.73;12.60;;;2.30;99.90;;;;;;5050792;28;20178;-47
2023/01/23 07:39:23;;;;;;;17.83;11.10;;;2.20;99.90;;;;;;5050366;28;20526;-47
2023/01/23 07:41:48;;;;;;;19.27;12.13;;;2.30;99.90;;;;;;5050334;28;20189;-46
2023/01/23 07:44:19;;;;;;;18.08;11.00;;;2.30;99.90;;;;;;5050314;28;20249;-46
2023/01/23 07:46:46;;;;;;;17.02;11.07;;;2.30;99.90;;;;;;5050241;28;20174;-46
2023/01/23 07:49:12;;;;;;;17.88;11.85;;;2.40;99.90;;;;;;5050360;28;20171;-46
2023/01/23 07:51:38;;;;;;;20.30;12.98;;;2.30;99.90;;;;;;5050641;28;20521;-46
2023/01/23 07:54:04;;;;;;;18.13;10.88;;;2.40;99.90;;;;;;5064131;28;20174;-46
2023/01/23 07:56:29;;;;;;;20.77;12.38;;;2.40;99.90;;;;;;5051809;28;20181;-46
2023/01/23 07:58:55;;;;;;;18.38;11.48;;;2.50;99.90;;;;;;5054220;28;20202;-46
2023/01/23 08:01:20;;;;;;;18.80;11.32;;;2.40;99.90;;;;;;5070226;28;20213;-46
2023/01/23 08:03:46;;;;;;;17.52;11.48;;;2.50;99.90;;;;;;5069919;28;20209;-46
2023/01/23 08:06:13;;;;;;;17.23;11.25;;;2.40;99.90;;;;;;5069962;28;20193;-46
2023/01/23 08:08:39;;;;;;;18.83;11.50;;;2.60;99.90;;;;;;5069067;28;20170;-44
2023/01/23 08:11:09;;;;;;;18.02;11.05;;;2.50;99.90;;;;;;5052538;28;20175;-46
2023/01/23 08:13:35;;;;;;;19.95;11.73;;;2.50;99.90;;;;;;5051226;28;20696;-46
2023/01/23 08:16:01;;;;;;;17.35;11.10;;;2.60;99.90;;;;;;5051225;28;20178;-46
2023/01/23 08:18:28;;;;;;;18.48;11.25;;;2.60;99.90;;;;;;5052070;28;20537;-47
2023/01/23 08:20:55;;;;;;;16.00;9.93;;;2.60;99.90;;;;;;5051433;28;20210;-47
2023/01/23 08:23:25;;;;;;;17.85;10.68;;;2.60;99.90;;;;;;5051140;28;20190;-47
2023/01/23 08:25:55;;;;;;;18.38;11.35;;;2.50;99.90;;;;;;5051171;28;20202;-47
2023/01/23 08:28:21;;;;;;;17.92;11.05;;;2.60;99.90;;;;;;5051272;28;20170;-46
2023/01/23 08:30:47;;;;;;;18.75;10.88;;;2.60;99.90;;;;;;5051116;28;20190;-46
2023/01/23 08:33:13;;;;;;;19.35;11.85;;;2.70;99.90;;;;;;5049836;28;20525;-46
2023/01/23 08:35:46;;;;;;;20.08;11.70;;;2.80;99.90;;;;;;5051335;28;20182;-46
2023/01/23 08:38:12;;;;;;;16.65;10.80;;;2.80;99.90;;;;;;5051000;28;20198;-46
2023/01/23 08:40:37;;;;;;;16.50;11.13;;;2.70;99.90;;;;;;5051238;28;20244;-47
2023/01/23 08:43:03;;;;;;;17.00;11.40;;;2.80;99.90;;;;;;5050964;28;20202;-47
2023/01/23 08:45:28;;;;;;;17.50;12.05;;;2.90;99.90;;;;;;5051088;28;20236;-47
2023/01/23 08:47:55;;;;;;;18.30;11.23;;;2.90;99.90;;;;;;5053602;28;20178;-47
2023/01/23 08:50:20;;;;;;;16.92;11.55;;;2.90;99.90;;;;;;5054944;28;20171;-46
2023/01/23 08:52:46;;;;;;;18.35;11.43;;;2.90;99.90;;;;;;5055198;28;20661;-46
2023/01/23 08:55:11;;;;;;;18.88;11.73;;;3.00;99.90;;;;;;5054879;28;20171;-47
2023/01/23 08:57:37;;;;;;;17.75;11.07;;;2.90;99.90;;;;;;5055271;28;20167;-46
2023/01/23 09:00:03;;;;;;;20.90;13.07;;;3.00;99.90;;;;;;5054684;28;20194;-46
2023/01/23 09:02:28;;;;;;;18.98;10.77;;;3.00;99.90;;;;;;5054701;28;20577;-46
2023/01/23 09:04:54;;;;;;;19.08;11.95;;;3.00;99.90;;;;;;5054462;28;20555;-44
2023/01/23 09:07:19;;;;;;;16.70;10.93;;;3.00;99.90;;;;;;5054565;28;20818;-44
2023/01/23 09:09:45;;;;;;;18.65;11.75;;;3.00;99.90;;;;;;5054573;28;20228;-44
2023/01/23 09:12:11;;;;;;;19.20;12.18;;;3.00;99.90;;;;;;5054778;28;20166;-44
2023/01/23 09:14:36;;;;;;;21.38;13.13;;;3.10;99.90;;;;;;5054920;28;20639;-44
2023/01/23 09:17:02;;;;;;;22.45;11.25;;;3.00;99.90;;;;;;5057982;28;20633;-46
2023/01/23 09:19:30;;;;;;;18.52;11.98;;;3.10;99.90;;;;;;5066875;28;20182;-46
2023/01/23 09:21:56;;;;;;;19.30;12.18;;;3.20;99.90;;;;;;5054600;28;20601;-45
2023/01/23 09:24:22;;;;;;;18.13;10.80;;;3.10;99.90;;;;;;5054358;28;20257;-44
2023/01/23 09:26:47;;;;;;;19.67;12.10;;;3.30;99.90;;;;;;5052989;28;20198;-44
2023/01/23 09:29:13;;;;;;;20.98;11.25;;;3.20;99.90;;;;;;5054228;28;20174;-44
2023/01/23 09:31:39;;;;;;;18.23;11.55;;;3.20;99.90;;;;;;5054585;28;20167;-44
2023/01/23 09:34:06;;;;;;;17.83;11.18;;;3.30;99.90;;;;;;5052877;28;20178;-44
2023/01/23 09:36:33;;;;;;;18.88;11.73;;;3.30;99.90;;;;;;5054167;28;20508;-44
2023/01/23 09:38:59;;;;;;;18.38;10.75;;;3.30;99.90;;;;;;5053140;28;20182;-44
2023/01/23 09:41:28;;;;;;;19.50;10.63;;;3.20;99.90;;;;;;5054541;28;20205;-44
2023/01/23 09:43:58;;;;;;;17.05;10.88;;;3.30;99.90;;;;;;5054623;28;20179;-44
2023/01/23 09:46:39;;;;;;;18.40;11.40;;;3.30;99.90;;;;;;5054397;28;20252;-44
2023/01/23 09:49:45;;;;;;;22.50;11.93;;;3.40;99.90;;;;;;5054345;28;20178;-44
2023/01/23 09:52:15;;;;;;;17.00;11.00;;;3.40;99.90;;;;;;5054265;28;20249;-44
2023/01/23 09:54:46;;;;;;;18.52;11.60;;;3.30;99.90;;;;;;5054777;28;20261;-44
2023/01/23 09:57:17;;;;;;;16.08;10.32;;;3.30;99.90;;;;;;5054167;28;20163;-44
2023/01/23 10:00:19;;;;;;;18.38;11.80;;;3.40;99.90;;;;;;5052989;28;20171;-44
2023/01/23 10:02:45;;;;;;;19.63;11.25;;;3.30;99.90;;;;;;5054381;28;20174;-44
2023/01/23 10:05:16;;;;;;;18.75;10.95;;;3.40;99.90;;;;;;5053708;28;20617;-44
2023/01/23 10:08:06;;;;;;;17.88;10.70;;;3.40;99.90;;;;;;5053952;28;20228;-44
2023/01/23 10:10:43;;;;;;;19.90;11.65;;;3.50;99.90;;;;;;5053886;28;20173;-44
2023/01/23 10:13:44;;;;;;;17.20;10.55;;;3.50;99.90;;;;;;5054459;28;20167;-44
2023/01/23 10:16:31;;;;;;;19.27;11.63;;;3.50;99.90;;;;;;5037609;28;20174;-44
2023/01/23 10:19:06;;;;;;;19.40;11.70;;;3.60;99.90;;;;;;5053715;28;20181;-45
2023/01/23 10:21:54;;;;;;;18.15;11.23;;;3.60;99.90;;;;;;5053846;28;20214;-44
2023/01/23 10:24:31;;;;;;;19.02;10.45;;;3.60;99.90;;;;;;5053659;28;20158;-44
2023/01/23 10:27:09;;;;;;;18.70;11.63;;;3.60;99.90;;;;;;5071473;28;20211;-44
2023/01/23 10:29:42;;;;;;;17.35;11.35;;;3.60;99.90;;;;;;5073873;28;20158;-46
2023/01/23 10:32:29;;;;;;;17.60;11.07;;;3.70;99.90;;;;;;5073875;28;20162;-44
2023/01/23 10:35:23;;;;;;;23.60;12.85;;;3.60;99.90;;;;;;5073474;28;20166;-44
2023/01/23 10:38:14;;;;;;;18.80;11.23;;;3.70;99.90;;;;;;5057438;28;20182;-44
2023/01/23 10:43:25;;;;;;;19.70;11.75;;;3.80;99.90;;;;;;5073267;28;20645;-44
2023/01/23 10:45:51;;;;;;;19.80;11.55;;;3.80;99.90;;;;;;5071897;28;20272;-44
2023/01/23 10:48:52;;;;;;;20.45;11.65;;;3.80;99.90;;;;;;5057219;28;20257;-44
2023/01/23 10:51:36;;;;;;;21.73;11.45;;;3.80;99.90;;;;;;5049547;28;20239;-45
2023/01/23 10:54:04;;;;;;;19.90;11.52;;;4.00;99.90;;;;;;5053102;28;20232;-45
2023/01/23 10:56:31;;;;;;;20.50;11.90;;;3.90;99.90;;;;;;5053233;28;21197;-44
2023/01/23 10:59:01;;;;;;;21.52;11.50;;;3.90;99.90;;;;;;5053003;28;20177;-45
2023/01/23 11:01:31;;;;;;;22.25;11.73;;;3.90;99.90;;;;;;5053092;28;20210;-44
2023/01/23 11:04:07;;;;;;;23.13;11.90;;;4.00;99.90;;;;;;5052814;28;20217;-44
2023/01/23 11:06:33;;;;;;;20.67;11.65;;;4.00;99.90;;;;;;5052875;28;20580;-44
2023/01/23 11:08:59;;;;;;;21.55;12.07;;;4.00;99.90;;;;;;5052774;28;20197;-45
2023/01/23 11:11:30;;;;;;;18.10;11.45;;;4.00;99.90;;;;;;5052476;28;20167;-45
2023/01/23 11:14:20;;;;;;;18.50;10.35;;;4.00;99.90;;;;;;5052398;28;20589;-44
2023/01/23 11:17:01;;;;;;;17.02;10.95;;;4.00;99.90;;;;;;5052930;28;20182;-44
2023/01/23 11:19:30;;;;;;;19.30;11.65;;;4.00;99.90;;;;;;5052940;28;20163;-44
2023/01/23 11:21:58;;;;;;;20.30;11.10;;;4.10;99.90;;;;;;5052102;28;20593;-44
2023/01/23 11:24:24;;;;;;;16.00;10.70;;;4.10;99.90;;;;;;5052452;28;20674;-44
2023/01/23 11:27:13;;;;;;;16.92;9.85;;;4.30;99.90;;;;;;5052420;28;20258;-45
2023/01/23 11:30:01;;;;;;;17.92;10.43;;;4.20;99.90;;;;;;5044530;28;20261;-45
2023/01/23 11:32:29;;;;;;;14.95;9.90;;;4.20;99.90;;;;;;5052319;28;20174;-45
2023/01/23 11:35:10;;;;;;;15.93;10.30;;;4.30;99.90;;;;;;5052397;28;20167;-45
2023/01/23 11:37:39;;;;;;;17.02;10.10;;;4.30;99.90;;;;;;5052692;28;20163;-44
2023/01/23 11:40:11;;;;;;;15.70;9.63;;;4.40;99.90;;;;;;5052143;28;20251;-44
2023/01/23 11:42:40;;;;;;;16.17;10.88;;;4.50;99.90;;;;;;5052580;28;20653;-44
2023/01/23 11:45:24;;;;;;;15.07;9.82;;;4.60;99.90;;;;;;5052525;28;20159;-45
2023/01/23 11:48:11;;;;;;;16.20;9.35;;;4.70;99.90;;;;;;5065585;28;20182;-45
2023/01/23 11:50:53;;;;;;;12.82;8.80;;;4.50;99.90;;;;;;5071113;28;20169;-45
2023/01/23 11:53:43;;;;;;;15.73;10.10;;;4.60;99.90;;;;;;5072041;28;20646;-45
2023/01/23 11:56:35;;;;;;;13.82;9.57;;;4.70;99.90;;;;;;5055668;28;20537;-45
2023/01/23 11:59:18;;;;;;;16.83;10.25;;;4.80;99.90;;;;;;5051907;28;20173;-45
2023/01/23 12:01:52;;;;;;;14.70;9.88;;;4.80;99.90;;;;;;5051642;28;20240;-44
2023/01/23 12:04:37;;;;;;;13.32;9.23;;;4.80;99.90;;;;;;5051959;28;20253;-45
2023/01/23 12:07:25;;;;;;;12.98;8.65;;;4.80;99.90;;;;;;5051837;28;20162;-45
2023/01/23 12:09:55;;;;;;;15.73;9.18;;;4.90;99.90;;;;;;5051591;28;20194;-45
2023/01/23 12:12:35;;;;;;;11.32;7.82;;;4.80;99.90;;;;;;5051435;28;20236;-44
2023/01/23 12:15:01;;;;;;;11.27;8.43;;;4.80;99.90;;;;;;5059992;28;20165;-44
2023/01/23 12:17:29;;;;;;;13.07;8.70;;;4.80;99.90;;;;;;5070715;28;20554;-45
2023/01/23 12:20:26;;;;;;;13.73;8.50;;;4.90;99.90;;;;;;5071533;28;20201;-45
2023/01/23 12:23:15;;;;;;;12.40;7.95;;;4.90;99.90;;;;;;5070404;28;20221;-44
2023/01/23 12:25:51;;;;;;;11.02;7.30;;;5.00;99.90;;;;;;5071571;28;20174;-45
2023/01/23 12:28:16;;;;;;;11.00;8.48;;;5.00;99.90;;;;;;5071612;28;20244;-45
2023/01/23 12:30:44;;;;;;;13.25;8.23;;;5.10;99.90;;;;;;5071116;28;20257;-44
2023/01/23 12:33:31;;;;;;;10.30;7.57;;;5.10;99.90;;;;;;5071515;28;20166;-44
2023/01/23 12:36:23;;;;;;;10.90;7.75;;;5.20;99.90;;;;;;5051218;28;20174;-45
2023/01/23 12:39:01;;;;;;;15.35;9.70;;;5.10;99.90;;;;;;5051454;28;20639;-44
2023/01/23 12:41:35;;;;;;;14.70;8.77;;;5.20;99.90;;;;;;5051310;28;20212;-45
2023/01/23 12:44:10;;;;;;;14.70;9.25;;;5.20;99.90;;;;;;5051303;28;20372;-45
2023/01/23 12:46:54;;;;;;;14.82;9.85;;;5.20;99.90;;;;;;5051645;28;20181;-45
2023/01/23 12:49:41;;;;;;;13.40;8.10;;;5.10;99.90;;;;;;5051629;28;20171;-45
2023/01/23 12:52:46;;;;;;;16.80;9.73;;;5.00;99.90;;;;;;5050314;28;20167;-45
2023/01/23 12:55:22;;;;;;;13.90;9.55;;;5.00;99.90;;;;;;5065846;28;20256;-45
2023/01/23 12:57:53;;;;;;;15.90;10.05;;;5.00;99.90;;;;;;5071210;28;20713;-45